createdAt,value
2023-04-17T00:01:40.271Z,100.00
2023-04-17T00:04:10.773Z,100.00
2023-04-17T00:06:43.637Z,100.00
2023-04-17T00:09:12.037Z,100.00
2023-04-17T00:11:40.416Z,100.00
2023-04-17T00:14:08.408Z,100.00
2023-04-17T00:16:36.314Z,100.00
2023-04-17T00:19:04.167Z,100.00
2023-04-17T00:21:32.291Z,100.00
2023-04-17T00:24:01.732Z,100.00
2023-04-17T00:26:29.888Z,100.00
2023-04-17T00:28:57.704Z,100.00
2023-04-17T00:31:25.683Z,100.00
2023-04-17T00:33:53.943Z,100.00
2023-04-17T00:36:24.549Z,100.00
2023-04-17T00:38:52.413Z,100.00
2023-04-17T00:41:21.827Z,100.00
2023-04-17T00:43:49.681Z,100.00
2023-04-17T00:46:17.905Z,100.00
2023-04-17T00:48:45.926Z,100.00
2023-04-17T00:51:13.722Z,100.00
2023-04-17T00:53:41.814Z,100.00
2023-04-17T00:56:10.820Z,100.00
2023-04-17T00:58:41.947Z,100.00
2023-04-17T01:01:09.727Z,100.00
2023-04-17T01:03:37.826Z,100.00
2023-04-17T01:06:06.191Z,100.00
2023-04-17T01:08:45.412Z,100.00
2023-04-17T01:11:13.488Z,100.00
2023-04-17T01:13:49.486Z,100.00
2023-04-17T01:16:17.771Z,100.00
2023-04-17T01:18:46.512Z,100.00
2023-04-17T01:21:14.571Z,100.00
2023-04-17T01:23:49.903Z,100.00
2023-04-17T01:26:21.148Z,100.00
2023-04-17T01:29:07.535Z,100.00
2023-04-17T01:31:35.345Z,100.00
2023-04-17T01:34:03.170Z,100.00
2023-04-17T01:36:31.770Z,100.00
2023-04-17T01:38:59.711Z,100.00
2023-04-17T01:41:27.495Z,100.00
2023-04-17T01:43:55.317Z,100.00
2023-04-17T01:46:24.892Z,100.00
2023-04-17T01:48:53.451Z,100.00
2023-04-17T01:51:21.513Z,100.00
2023-04-17T01:53:49.314Z,100.00
2023-04-17T01:56:18.071Z,100.00
2023-04-17T01:58:45.908Z,100.00
2023-04-17T02:01:14.825Z,100.00
2023-04-17T02:03:44.162Z,100.00
2023-04-17T02:06:12.100Z,100.00
2023-04-17T02:08:39.863Z,100.00
2023-04-17T02:11:07.996Z,100.00
2023-04-17T02:13:35.861Z,100.00
2023-04-17T02:16:03.628Z,100.00
2023-04-17T02:18:31.391Z,100.00
2023-04-17T02:21:00.818Z,100.00
2023-04-17T02:23:28.672Z,100.00
2023-04-17T02:25:56.525Z,100.00
2023-04-17T02:28:24.601Z,100.00
2023-04-17T02:30:52.353Z,100.00
2023-04-17T02:33:20.278Z,100.00
2023-04-17T02:35:48.259Z,100.00
2023-04-17T02:38:17.688Z,100.00
2023-04-17T02:40:45.529Z,100.00
2023-04-17T02:43:14.133Z,100.00
2023-04-17T02:45:41.948Z,100.00
2023-04-17T02:48:10.431Z,100.00
2023-04-17T02:50:38.252Z,100.00
2023-04-17T02:53:06.018Z,100.00
2023-04-17T02:55:35.327Z,100.00
2023-04-17T02:58:03.170Z,100.00
2023-04-17T03:00:31.181Z,100.00
2023-04-17T03:02:59.045Z,100.00
2023-04-17T03:05:30.367Z,100.00
2023-04-17T03:07:58.928Z,100.00
2023-04-17T03:10:26.976Z,100.00
2023-04-17T03:12:56.259Z,100.00
2023-04-17T03:15:24.372Z,100.00
2023-04-17T03:17:52.255Z,100.00
2023-04-17T03:20:20.145Z,100.00
2023-04-17T03:22:52.198Z,100.00
2023-04-17T03:25:23.662Z,100.00
2023-04-17T03:27:51.573Z,100.00
2023-04-17T03:30:21.024Z,100.00
2023-04-17T03:32:48.989Z,100.00
2023-04-17T03:35:16.870Z,100.00
2023-04-17T03:37:44.618Z,100.00
2023-04-17T03:40:12.835Z,100.00
2023-04-17T03:42:40.690Z,100.00
2023-04-17T03:45:10.110Z,100.00
2023-04-17T03:47:39.318Z,100.00
2023-04-17T03:50:08.265Z,100.00
2023-04-17T03:52:36.012Z,100.00
2023-04-17T03:55:04.048Z,100.00
2023-04-17T03:57:31.989Z,100.00
2023-04-17T03:59:59.834Z,100.00
2023-04-17T04:02:27.788Z,100.00
2023-04-17T04:04:57.252Z,100.00
2023-04-17T04:07:25.274Z,100.00
2023-04-17T04:09:53.267Z,100.00
2023-04-17T04:12:23.002Z,100.00
2023-04-17T04:14:50.814Z,100.00
2023-04-17T04:17:18.734Z,100.00
2023-04-17T04:19:47.965Z,100.00
2023-04-17T04:22:18.690Z,100.00
2023-04-17T04:24:47.391Z,100.00
2023-04-17T04:27:18.263Z,100.00
2023-04-17T04:29:48.942Z,100.00
2023-04-17T04:32:17.069Z,100.00
2023-04-17T04:34:45.777Z,100.00
2023-04-17T04:37:15.655Z,100.00
2023-04-17T04:39:47.364Z,100.00
2023-04-17T04:42:21.947Z,100.00
2023-04-17T04:44:50.018Z,100.00
2023-04-17T04:47:20.061Z,100.00
2023-04-17T04:49:48.324Z,100.00
2023-04-17T04:52:16.225Z,100.00
2023-04-17T04:54:45.481Z,100.00
2023-04-17T04:57:15.846Z,100.00
2023-04-17T04:59:44.850Z,100.00
2023-04-17T05:02:17.864Z,100.00
2023-04-17T05:04:49.973Z,100.00
2023-04-17T05:07:17.954Z,100.00
2023-04-17T05:09:54.858Z,100.00
2023-04-17T05:12:22.696Z,100.00
2023-04-17T05:14:50.554Z,100.00
2023-04-17T05:17:18.793Z,100.00
2023-04-17T05:19:47.742Z,100.00
2023-04-17T05:22:15.919Z,100.00
2023-04-17T05:24:43.953Z,100.00
2023-04-17T05:27:13.080Z,100.00
2023-04-17T05:29:40.886Z,100.00
2023-04-17T05:32:08.813Z,100.00
2023-04-17T05:34:36.810Z,100.00
2023-04-17T05:37:04.599Z,100.00
2023-04-17T05:39:32.389Z,100.00
2023-04-17T05:42:00.282Z,100.00
2023-04-17T05:44:29.418Z,100.00
2023-04-17T05:47:00.177Z,100.00
2023-04-17T05:49:28.037Z,100.00
2023-04-17T05:51:56.035Z,100.00
2023-04-17T05:54:23.861Z,100.00
2023-04-17T05:56:52.233Z,100.00
2023-04-17T05:59:21.150Z,100.00
2023-04-17T06:01:51.010Z,100.00
2023-04-17T06:04:19.148Z,100.00
2023-04-17T06:06:47.330Z,100.00
2023-04-17T06:09:15.887Z,100.00
2023-04-17T06:11:43.694Z,100.00
2023-04-17T06:14:11.489Z,100.00
2023-04-17T06:16:39.388Z,100.00
2023-04-17T06:19:08.654Z,100.00
2023-04-17T06:21:36.438Z,100.00
2023-04-17T06:24:04.628Z,100.00
2023-04-17T06:26:35.359Z,100.00
2023-04-17T06:29:03.792Z,100.00
2023-04-17T06:31:31.833Z,100.00
2023-04-17T06:34:05.686Z,100.00
2023-04-17T06:36:35.250Z,100.00
2023-04-17T06:39:03.359Z,100.00
2023-04-17T06:41:31.284Z,100.00
2023-04-17T06:44:01.482Z,100.00
2023-04-17T06:46:29.426Z,100.00
2023-04-17T06:48:59.952Z,100.00
2023-04-17T06:51:35.380Z,100.00
2023-04-17T06:54:03.377Z,100.00
2023-04-17T06:56:33.417Z,100.00
2023-04-17T06:59:02.988Z,100.00
2023-04-17T07:01:31.490Z,100.00
2023-04-17T07:03:59.575Z,100.00
2023-04-17T07:06:46.610Z,100.00
2023-04-17T07:09:16.512Z,100.00
2023-04-17T07:11:44.850Z,100.00
2023-04-17T07:14:13.019Z,100.00
2023-04-17T07:16:51.799Z,100.00
2023-04-17T07:19:21.347Z,100.00
2023-04-17T07:21:49.414Z,100.00
2023-04-17T07:24:19.008Z,100.00
2023-04-17T07:26:47.164Z,100.00
2023-04-17T07:29:15.636Z,100.00
2023-04-17T07:31:43.825Z,100.00
2023-04-17T07:34:11.636Z,100.00
2023-04-17T07:36:39.763Z,100.00
2023-04-17T07:39:08.117Z,100.00
2023-04-17T07:41:37.467Z,100.00
2023-04-17T07:44:07.186Z,100.00
2023-04-17T07:46:35.321Z,100.00
2023-04-17T07:49:04.656Z,100.00
2023-04-17T07:51:33.120Z,100.00
2023-04-17T07:54:01.529Z,100.00
2023-04-17T07:56:32.164Z,100.00
2023-04-17T07:59:02.745Z,100.00
2023-04-17T08:01:32.113Z,100.00
2023-04-17T08:04:00.511Z,100.00
2023-04-17T08:06:28.526Z,100.00
2023-04-17T08:08:56.794Z,100.00
2023-04-17T08:11:24.757Z,100.00
2023-04-17T08:13:52.834Z,100.00
2023-04-17T08:16:22.413Z,100.00
2023-04-17T08:18:50.510Z,100.00
2023-04-17T08:21:20.267Z,100.00
2023-04-17T08:23:51.463Z,100.00
2023-04-17T08:26:22.582Z,100.00
2023-04-17T08:28:53.820Z,100.00
2023-04-17T08:31:23.513Z,100.00
2023-04-17T08:34:02.812Z,100.00
2023-04-17T08:36:41.451Z,100.00
2023-04-17T08:39:14.639Z,100.00
2023-04-17T08:41:50.417Z,100.00
2023-04-17T08:44:23.035Z,100.00
2023-04-17T08:46:53.895Z,100.00
2023-04-17T08:49:21.913Z,100.00
2023-04-17T08:51:50.854Z,100.00
2023-04-17T08:54:19.965Z,100.00
2023-04-17T08:56:48.098Z,100.00
2023-04-17T08:59:17.197Z,100.00
2023-04-17T09:02:05.310Z,100.00
2023-04-17T09:04:41.853Z,100.00
2023-04-17T09:07:11.559Z,100.00
2023-04-17T09:09:53.012Z,100.00
2023-04-17T09:12:21.900Z,100.00
2023-04-17T09:14:50.097Z,100.00
2023-04-17T09:17:20.678Z,100.00
2023-04-17T09:20:11.985Z,100.00
2023-04-17T09:22:42.426Z,99.99
2023-04-17T09:25:18.248Z,98.05
2023-04-17T09:27:46.841Z,97.29
2023-04-17T09:30:15.056Z,95.99
2023-04-17T09:32:44.576Z,95.34
2023-04-17T09:35:24.565Z,96.23
2023-04-17T09:37:54.183Z,95.05
2023-04-17T09:40:23.517Z,94.51
2023-04-17T09:42:56.495Z,92.46
2023-04-17T09:45:25.595Z,92.35
2023-04-17T09:47:56.173Z,91.88
2023-04-17T09:50:25.788Z,92.01
2023-04-17T09:52:55.494Z,92.34
2023-04-17T09:55:24.870Z,89.95
2023-04-17T09:57:55.537Z,90.07
2023-04-17T10:00:27.110Z,88.13
2023-04-17T10:02:58.148Z,89.31
2023-04-17T10:05:29.056Z,89.59
2023-04-17T10:07:57.869Z,89.79
2023-04-17T10:10:26.925Z,88.06
2023-04-17T10:12:59.889Z,84.14
2023-04-17T10:15:28.580Z,83.06
2023-04-17T10:18:23.026Z,83.31
2023-04-17T10:20:53.374Z,83.95
2023-04-17T10:23:32.863Z,82.38
2023-04-17T10:26:43.572Z,82.49
2023-04-17T10:29:12.779Z,81.61
2023-04-17T10:32:25.851Z,79.05
2023-04-17T10:34:57.193Z,79.19
2023-04-17T10:37:58.469Z,78.08
2023-04-17T10:40:30.522Z,78.45
2023-04-17T10:43:09.734Z,78.34
2023-04-17T10:45:54.516Z,80.62
2023-04-17T10:48:26.597Z,79.86
2023-04-17T10:50:56.250Z,75.46
2023-04-17T10:53:44.596Z,75.98
2023-04-17T10:56:18.150Z,77.94
2023-04-17T10:59:02.540Z,76.61
2023-04-17T11:01:31.790Z,76.21
2023-04-17T11:04:00.554Z,75.09
2023-04-17T11:06:32.505Z,76.22
2023-04-17T11:09:01.401Z,75.27
2023-04-17T11:11:43.559Z,75.68
2023-04-17T11:14:14.657Z,75.17
2023-04-17T11:16:46.053Z,75.08
2023-04-17T11:19:19.399Z,72.49
2023-04-17T11:21:50.326Z,71.49
2023-04-17T11:24:24.069Z,71.26
2023-04-17T11:26:51.695Z,68.87
2023-04-17T11:29:20.774Z,67.77
2023-04-17T11:31:49.843Z,66.92
2023-04-17T11:34:17.846Z,68.28
2023-04-17T11:36:51.940Z,68.59
2023-04-17T11:39:20.126Z,68.71
2023-04-17T11:41:48.208Z,67.80
2023-04-17T11:44:16.790Z,67.52
2023-04-17T11:46:49.886Z,68.58
2023-04-17T11:49:17.722Z,70.27
2023-04-17T11:51:46.284Z,71.91
2023-04-17T11:54:26.140Z,71.95
2023-04-17T11:56:59.975Z,70.82
2023-04-17T11:59:32.053Z,70.99
2023-04-17T12:02:00.820Z,71.19
2023-04-17T12:04:30.221Z,71.63
2023-04-17T12:06:59.787Z,70.27
2023-04-17T12:09:31.867Z,69.72
2023-04-17T12:12:00.252Z,68.73
2023-04-17T12:14:28.088Z,68.26
2023-04-17T12:16:55.910Z,67.94
2023-04-17T12:19:25.556Z,68.51
2023-04-17T12:21:54.512Z,65.85
2023-04-17T12:24:24.890Z,66.75
2023-04-17T12:26:54.832Z,67.77
2023-04-17T12:29:36.302Z,66.55
2023-04-17T12:32:11.590Z,63.73
2023-04-17T12:34:39.491Z,66.26
2023-04-17T12:37:07.317Z,66.21
2023-04-17T12:39:35.078Z,64.72
2023-04-17T12:42:04.572Z,62.99
2023-04-17T12:44:32.341Z,64.63
2023-04-17T12:47:00.118Z,67.50
2023-04-17T12:49:27.951Z,67.83
2023-04-17T12:51:56.154Z,65.16
2023-04-17T12:54:23.905Z,68.20
2023-04-17T12:56:51.682Z,65.91
2023-04-17T12:59:20.909Z,64.95
2023-04-17T13:01:48.995Z,66.12
2023-04-17T13:04:17.168Z,67.61
2023-04-17T13:06:45.321Z,67.69
2023-04-17T13:09:13.181Z,68.13
2023-04-17T13:11:41.282Z,70.32
2023-04-17T13:14:09.109Z,69.32
2023-04-17T13:16:38.322Z,71.29
2023-04-17T13:19:06.313Z,72.38
2023-04-17T13:21:34.187Z,72.21
2023-04-17T13:24:02.061Z,70.59
2023-04-17T13:26:30.009Z,69.86
2023-04-17T13:28:57.923Z,67.94
2023-04-17T13:31:27.706Z,69.07
2023-04-17T13:33:56.942Z,68.32
2023-04-17T13:36:24.925Z,68.79
2023-04-17T13:38:52.727Z,68.05
2023-04-17T13:41:20.952Z,66.81
2023-04-17T13:43:48.817Z,67.31
2023-04-17T13:46:17.198Z,65.92
2023-04-17T13:48:45.082Z,63.11
2023-04-17T13:51:15.157Z,67.84
2023-04-17T13:53:43.180Z,69.90
2023-04-17T13:56:11.242Z,69.34
2023-04-17T13:58:40.429Z,68.66
2023-04-17T14:01:09.058Z,68.75
2023-04-17T14:03:39.749Z,68.71
2023-04-17T14:06:08.928Z,68.28
2023-04-17T14:08:38.549Z,66.22
2023-04-17T14:11:06.560Z,66.41
2023-04-17T14:13:34.438Z,65.67
2023-04-17T14:16:02.739Z,65.23
2023-04-17T14:18:30.528Z,65.22
2023-04-17T14:21:01.293Z,64.95
2023-04-17T14:23:29.343Z,63.87
2023-04-17T14:26:01.576Z,66.09
2023-04-17T14:28:29.680Z,65.37
2023-04-17T14:31:01.207Z,65.31
2023-04-17T14:33:29.579Z,66.08
2023-04-17T14:35:57.581Z,65.52
2023-04-17T14:38:25.534Z,66.95
2023-04-17T14:40:53.884Z,67.31
2023-04-17T14:43:23.170Z,66.71
2023-04-17T14:45:51.449Z,66.31
2023-04-17T14:48:21.058Z,64.99
2023-04-17T14:50:48.941Z,66.38
2023-04-17T14:53:17.980Z,65.93
2023-04-17T14:55:47.361Z,65.70
2023-04-17T14:58:17.690Z,65.83
2023-04-17T15:00:47.163Z,64.83
2023-04-17T15:03:15.294Z,65.24
2023-04-17T15:05:46.391Z,64.40
2023-04-17T15:08:14.510Z,65.60
2023-04-17T15:10:50.586Z,66.74
2023-04-17T15:13:19.505Z,64.64
2023-04-17T15:15:48.962Z,66.39
2023-04-17T15:18:19.755Z,66.93
2023-04-17T15:20:47.856Z,67.56
2023-04-17T15:23:17.532Z,67.98
2023-04-17T15:25:45.693Z,67.38
2023-04-17T15:28:13.548Z,67.28
2023-04-17T15:30:41.501Z,67.33
2023-04-17T15:33:10.823Z,67.70
2023-04-17T15:35:38.976Z,67.35
2023-04-17T15:38:07.036Z,68.08
2023-04-17T15:40:34.938Z,68.02
2023-04-17T15:43:03.111Z,67.25
2023-04-17T15:45:30.908Z,67.34
2023-04-17T15:48:00.471Z,67.85
2023-04-17T15:50:29.677Z,69.00
2023-04-17T15:52:57.603Z,68.22
2023-04-17T15:55:25.517Z,68.14
2023-04-17T15:57:53.328Z,69.41
2023-04-17T16:00:22.110Z,68.73
2023-04-17T16:02:50.192Z,68.40
2023-04-17T16:05:19.133Z,69.55
2023-04-17T16:07:48.713Z,69.16
2023-04-17T16:10:16.988Z,69.36
2023-04-17T16:12:46.381Z,70.20
2023-04-17T16:15:16.267Z,69.88
2023-04-17T16:17:45.604Z,69.57
2023-04-17T16:20:15.356Z,69.97
2023-04-17T16:22:43.278Z,68.27
2023-04-17T16:25:13.389Z,68.50
2023-04-17T16:27:41.512Z,68.00
2023-04-17T16:30:10.967Z,68.63
2023-04-17T16:32:38.819Z,69.42
2023-04-17T16:35:07.549Z,69.05
2023-04-17T16:37:35.420Z,69.22
2023-04-17T16:40:05.278Z,69.01
2023-04-17T16:42:34.875Z,67.88
2023-04-17T16:45:28.163Z,68.60
2023-04-17T16:47:56.454Z,69.63
2023-04-17T16:50:25.674Z,71.43
2023-04-17T16:52:53.681Z,72.11
2023-04-17T16:55:21.873Z,72.34
2023-04-17T16:57:51.486Z,72.29
2023-04-17T17:00:19.690Z,72.61
2023-04-17T17:02:47.606Z,71.37
2023-04-17T17:05:16.018Z,72.22
2023-04-17T17:07:43.889Z,72.55
2023-04-17T17:10:12.263Z,72.92
2023-04-17T17:12:40.221Z,72.99
2023-04-17T17:15:10.496Z,73.00
2023-04-17T17:17:38.923Z,72.40
2023-04-17T17:20:08.690Z,71.35
2023-04-17T17:22:36.623Z,71.10
2023-04-17T17:25:04.701Z,70.43
2023-04-17T17:27:32.556Z,70.36
2023-04-17T17:30:00.811Z,71.08
2023-04-17T17:32:33.406Z,72.18
2023-04-17T17:35:01.236Z,72.78
2023-04-17T17:37:29.167Z,73.76
2023-04-17T17:39:58.866Z,73.66
2023-04-17T17:42:27.224Z,73.33
2023-04-17T17:44:55.546Z,74.38
2023-04-17T17:47:23.591Z,75.43
2023-04-17T17:49:56.462Z,75.79
2023-04-17T17:52:24.565Z,75.65
2023-04-17T17:54:52.536Z,75.79
2023-04-17T17:57:20.874Z,76.56
2023-04-17T17:59:48.989Z,76.22
2023-04-17T18:02:17.315Z,76.16
2023-04-17T18:04:45.712Z,76.41
2023-04-17T18:07:15.419Z,76.68
2023-04-17T18:09:43.507Z,77.17
2023-04-17T18:12:11.839Z,77.09
2023-04-17T18:14:40.254Z,77.47
2023-04-17T18:17:08.415Z,77.42
2023-04-17T18:19:40.866Z,78.05
2023-04-17T18:22:09.385Z,78.79
2023-04-17T18:24:39.099Z,78.68
2023-04-17T18:27:06.955Z,79.33
2023-04-17T18:29:34.946Z,79.67
2023-04-17T18:32:03.649Z,79.67
2023-04-17T18:34:31.815Z,80.15
2023-04-17T18:37:00.608Z,79.62
2023-04-17T18:39:28.934Z,79.61
2023-04-17T18:41:59.833Z,80.03
2023-04-17T18:44:28.609Z,80.40
2023-04-17T18:46:56.627Z,80.09
2023-04-17T18:49:24.800Z,80.89
2023-04-17T18:51:52.930Z,80.28
2023-04-17T18:54:20.962Z,81.38
2023-04-17T18:56:48.873Z,82.50
2023-04-17T18:59:19.942Z,82.75
2023-04-17T19:01:47.886Z,82.64
2023-04-17T19:04:16.538Z,83.25
2023-04-17T19:06:58.459Z,84.46
2023-04-17T19:09:27.001Z,84.20
2023-04-17T19:11:56.252Z,83.52
2023-04-17T19:14:25.968Z,84.40
2023-04-17T19:16:54.582Z,84.69
2023-04-17T19:19:22.550Z,85.54
2023-04-17T19:21:50.946Z,85.35
2023-04-17T19:24:19.013Z,86.52
2023-04-17T19:26:47.432Z,86.20
2023-04-17T19:29:17.406Z,87.78
2023-04-17T19:31:47.149Z,87.92
2023-04-17T19:34:15.775Z,87.54
2023-04-17T19:36:47.024Z,88.33
2023-04-17T19:39:16.120Z,88.83
2023-04-17T19:41:51.016Z,89.63
2023-04-17T19:44:22.150Z,90.09
2023-04-17T19:46:51.775Z,90.79
2023-04-17T19:49:19.916Z,90.90
2023-04-17T19:51:47.957Z,91.46
2023-04-17T19:54:16.160Z,91.53
2023-04-17T19:56:44.448Z,90.93
2023-04-17T19:59:13.698Z,90.70
2023-04-17T20:01:43.782Z,90.18
2023-04-17T20:04:16.718Z,89.65
2023-04-17T20:06:45.062Z,89.97
2023-04-17T20:09:14.805Z,89.46
2023-04-17T20:11:43.514Z,89.70
2023-04-17T20:14:14.746Z,89.71
2023-04-17T20:16:45.362Z,90.10
2023-04-17T20:19:15.762Z,90.98
2023-04-17T20:21:44.084Z,91.11
2023-04-17T20:24:12.945Z,91.77
2023-04-17T20:26:41.183Z,92.06
2023-04-17T20:29:09.166Z,92.46
2023-04-17T20:31:37.185Z,92.13
2023-04-17T20:34:05.333Z,93.20
2023-04-17T20:36:34.707Z,92.71
2023-04-17T20:39:02.637Z,92.85
2023-04-17T20:41:30.444Z,92.74
2023-04-17T20:43:59.513Z,92.66
2023-04-17T20:46:27.614Z,93.12
2023-04-17T20:48:55.746Z,94.18
2023-04-17T20:51:26.462Z,94.07
2023-04-17T20:53:56.477Z,94.14
2023-04-17T20:56:24.665Z,95.02
2023-04-17T20:58:52.542Z,95.04
2023-04-17T21:01:20.619Z,95.00
2023-04-17T21:03:48.884Z,94.80
2023-04-17T21:06:27.134Z,94.29
2023-04-17T21:09:01.893Z,94.08
2023-04-17T21:11:29.957Z,94.38
2023-04-17T21:14:00.794Z,95.03
2023-04-17T21:16:29.808Z,95.13
2023-04-17T21:18:57.833Z,95.26
2023-04-17T21:21:26.390Z,95.07
2023-04-17T21:23:54.523Z,94.95
2023-04-17T21:26:24.144Z,95.17
2023-04-17T21:28:52.155Z,95.23
2023-04-17T21:31:20.039Z,94.75
2023-04-17T21:33:48.247Z,94.18
2023-04-17T21:36:16.355Z,93.86
2023-04-17T21:38:52.491Z,93.79
2023-04-17T21:41:20.424Z,93.87
2023-04-17T21:43:49.908Z,93.60
2023-04-17T21:46:17.867Z,93.99
2023-04-17T21:48:45.922Z,93.43
2023-04-17T21:51:14.303Z,93.63
2023-04-17T21:53:44.148Z,93.72
2023-04-17T21:56:12.125Z,93.61
2023-04-17T21:58:40.508Z,93.89
2023-04-17T22:01:09.982Z,93.82
2023-04-17T22:03:39.685Z,93.86
2023-04-17T22:06:16.437Z,93.50
2023-04-17T22:08:44.473Z,93.60
2023-04-17T22:11:16.203Z,93.42
2023-04-17T22:13:45.016Z,93.94
2023-04-17T22:16:14.424Z,94.29
2023-04-17T22:18:42.339Z,95.00
2023-04-17T22:21:10.396Z,94.38
2023-04-17T22:24:33.747Z,94.86
2023-04-17T22:27:20.475Z,94.57
2023-04-17T22:30:05.641Z,94.49
2023-04-17T22:33:11.943Z,94.05
2023-04-17T22:36:34.901Z,94.35
2023-04-17T22:39:03.598Z,93.65
2023-04-17T22:41:49.923Z,93.53
2023-04-17T22:44:17.986Z,93.26
2023-04-17T22:46:45.884Z,93.06
2023-04-17T22:49:15.536Z,93.32
2023-04-17T22:51:44.600Z,93.35
2023-04-17T22:54:22.186Z,92.80
2023-04-17T22:56:51.291Z,93.22
2023-04-17T22:59:27.775Z,93.62
2023-04-17T23:01:55.998Z,93.75
2023-04-17T23:04:25.513Z,93.57
2023-04-17T23:06:54.002Z,94.36
2023-04-17T23:09:21.929Z,93.88
2023-04-17T23:11:49.987Z,94.09
2023-04-17T23:14:18.214Z,94.14
2023-04-17T23:16:46.193Z,95.27
2023-04-17T23:19:14.162Z,95.40
2023-04-17T23:21:43.411Z,95.21
2023-04-17T23:24:11.755Z,95.02
2023-04-17T23:26:39.769Z,95.09
2023-04-17T23:29:07.507Z,94.92
2023-04-17T23:31:35.687Z,94.90
2023-04-17T23:34:03.520Z,95.55
2023-04-17T23:36:31.820Z,94.86
2023-04-17T23:39:00.991Z,95.70
2023-04-17T23:41:29.682Z,95.11
2023-04-17T23:43:57.670Z,95.78
2023-04-17T23:46:25.505Z,95.80
2023-04-17T23:48:53.302Z,97.03
2023-04-17T23:51:21.138Z,97.16
2023-04-17T23:53:49.232Z,97.34
2023-04-17T23:56:22.088Z,97.78
2023-04-17T23:58:49.916Z,98.47
